sensor_id;sensor_type;location;lat;lon;timestamp;P1;durP1;ratioP1;P2;durP2;ratioP2
9128;SDS011;4599;50.906;6.786;2022-11-25T00:00:15;18.73;;;3.23;;
9128;SDS011;4599;50.906;6.786;2022-11-25T00:04:17;19.60;;;3.50;;
9128;SDS011;4599;50.906;6.786;2022-11-25T00:08:18;10.37;;;3.03;;
9128;SDS011;4599;50.906;6.786;2022-11-25T00:12:20;9.70;;;3.00;;
9128;SDS011;4599;50.906;6.786;2022-11-25T00:16:23;9.63;;;3.30;;
9128;SDS011;4599;50.906;6.786;2022-11-25T00:20:25;11.73;;;3.80;;
9128;SDS011;4599;50.906;6.786;2022-11-25T00:24:27;11.80;;;3.47;;
9128;SDS011;4599;50.906;6.786;2022-11-25T00:28:29;9.67;;;2.83;;
9128;SDS011;4599;50.906;6.786;2022-11-25T00:32:31;12.07;;;3.40;;
9128;SDS011;4599;50.906;6.786;2022-11-25T00:36:34;15.47;;;3.67;;
9128;SDS011;4599;50.906;6.786;2022-11-25T00:40:36;10.73;;;2.90;;
9128;SDS011;4599;50.906;6.786;2022-11-25T00:44:38;15.97;;;3.53;;
9128;SDS011;4599;50.906;6.786;2022-11-25T00:48:41;12.93;;;2.80;;
9128;SDS011;4599;50.906;6.786;2022-11-25T00:52:43;13.00;;;3.40;;
9128;SDS011;4599;50.906;6.786;2022-11-25T00:56:44;13.80;;;3.53;;
9128;SDS011;4599;50.906;6.786;2022-11-25T01:00:46;10.33;;;3.23;;
9128;SDS011;4599;50.906;6.786;2022-11-25T01:04:49;15.93;;;3.40;;
9128;SDS011;4599;50.906;6.786;2022-11-25T01:08:51;15.83;;;3.03;;
9128;SDS011;4599;50.906;6.786;2022-11-25T01:12:53;9.80;;;3.30;;
9128;SDS011;4599;50.906;6.786;2022-11-25T01:16:55;15.90;;;3.70;;
9128;SDS011;4599;50.906;6.786;2022-11-25T01:21:04;11.77;;;2.47;;
9128;SDS011;4599;50.906;6.786;2022-11-25T01:25:07;13.80;;;3.10;;
9128;SDS011;4599;50.906;6.786;2022-11-25T01:29:11;14.37;;;2.97;;
9128;SDS011;4599;50.906;6.786;2022-11-25T01:33:14;9.67;;;2.90;;
9128;SDS011;4599;50.906;6.786;2022-11-25T01:37:16;11.10;;;3.00;;
9128;SDS011;4599;50.906;6.786;2022-11-25T01:41:18;12.60;;;2.63;;
9128;SDS011;4599;50.906;6.786;2022-11-25T01:45:31;10.07;;;3.17;;
9128;SDS011;4599;50.906;6.786;2022-11-25T01:49:36;10.00;;;2.93;;
9128;SDS011;4599;50.906;6.786;2022-11-25T01:53:43;13.67;;;2.90;;
9128;SDS011;4599;50.906;6.786;2022-11-25T01:57:46;14.53;;;3.00;;
9128;SDS011;4599;50.906;6.786;2022-11-25T02:01:53;15.27;;;3.30;;
9128;SDS011;4599;50.906;6.786;2022-11-25T02:05:57;13.47;;;3.33;;
9128;SDS011;4599;50.906;6.786;2022-11-25T02:10:06;12.87;;;3.53;;
9128;SDS011;4599;50.906;6.786;2022-11-25T02:14:10;10.73;;;2.90;;
9128;SDS011;4599;50.906;6.786;2022-11-25T02:18:13;13.30;;;3.30;;
9128;SDS011;4599;50.906;6.786;2022-11-25T02:22:18;13.83;;;3.33;;
9128;SDS011;4599;50.906;6.786;2022-11-25T02:26:27;12.70;;;2.83;;
9128;SDS011;4599;50.906;6.786;2022-11-25T02:30:28;10.77;;;2.53;;
9128;SDS011;4599;50.906;6.786;2022-11-25T02:34:30;14.87;;;3.33;;
9128;SDS011;4599;50.906;6.786;2022-11-25T02:38:34;13.57;;;3.13;;
9128;SDS011;4599;50.906;6.786;2022-11-25T02:42:39;10.50;;;2.83;;
9128;SDS011;4599;50.906;6.786;2022-11-25T02:46:41;11.40;;;3.07;;
9128;SDS011;4599;50.906;6.786;2022-11-25T02:50:43;13.50;;;3.20;;
9128;SDS011;4599;50.906;6.786;2022-11-25T02:54:45;12.40;;;3.30;;
9128;SDS011;4599;50.906;6.786;2022-11-25T02:58:48;13.60;;;2.93;;
9128;SDS011;4599;50.906;6.786;2022-11-25T03:06:52;9.33;;;2.73;;
9128;SDS011;4599;50.906;6.786;2022-11-25T03:10:54;20.67;;;3.40;;
9128;SDS011;4599;50.906;6.786;2022-11-25T03:15:00;12.03;;;3.60;;
9128;SDS011;4599;50.906;6.786;2022-11-25T03:19:02;10.97;;;3.47;;
9128;SDS011;4599;50.906;6.786;2022-11-25T03:23:04;12.87;;;3.07;;
9128;SDS011;4599;50.906;6.786;2022-11-25T03:27:06;15.17;;;2.90;;
9128;SDS011;4599;50.906;6.786;2022-11-25T03:31:10;11.63;;;2.50;;
9128;SDS011;4599;50.906;6.786;2022-11-25T03:35:12;15.17;;;2.60;;
9128;SDS011;4599;50.906;6.786;2022-11-25T03:39:14;10.33;;;2.60;;
9128;SDS011;4599;50.906;6.786;2022-11-25T03:43:16;11.00;;;3.07;;
9128;SDS011;4599;50.906;6.786;2022-11-25T03:47:19;12.93;;;3.13;;
9128;SDS011;4599;50.906;6.786;2022-11-25T03:51:20;10.27;;;3.03;;
9128;SDS011;4599;50.906;6.786;2022-11-25T03:55:22;16.77;;;3.20;;
9128;SDS011;4599;50.906;6.786;2022-11-25T03:59:23;15.07;;;3.03;;
9128;SDS011;4599;50.906;6.786;2022-11-25T04:03:27;12.43;;;4.13;;
9128;SDS011;4599;50.906;6.786;2022-11-25T04:07:28;10.20;;;2.67;;
9128;SDS011;4599;50.906;6.786;2022-11-25T04:11:30;11.03;;;3.20;;
9128;SDS011;4599;50.906;6.786;2022-11-25T04:15:32;10.53;;;3.40;;
9128;SDS011;4599;50.906;6.786;2022-11-25T04:19:34;16.50;;;3.37;;
9128;SDS011;4599;50.906;6.786;2022-11-25T04:23:36;8.53;;;2.90;;
9128;SDS011;4599;50.906;6.786;2022-11-25T04:27:37;9.77;;;3.07;;
9128;SDS011;4599;50.906;6.786;2022-11-25T04:31:39;8.40;;;2.80;;
9128;SDS011;4599;50.906;6.786;2022-11-25T04:35:42;8.73;;;2.70;;
9128;SDS011;4599;50.906;6.786;2022-11-25T04:39:44;18.37;;;3.73;;
9128;SDS011;4599;50.906;6.786;2022-11-25T04:43:45;14.63;;;3.13;;
9128;SDS011;4599;50.906;6.786;2022-11-25T04:47:47;10.77;;;2.93;;
9128;SDS011;4599;50.906;6.786;2022-11-25T04:51:50;11.83;;;2.90;;
9128;SDS011;4599;50.906;6.786;2022-11-25T04:55:51;12.97;;;2.73;;
9128;SDS011;4599;50.906;6.786;2022-11-25T04:59:53;8.10;;;2.53;;
9128;SDS011;4599;50.906;6.786;2022-11-25T05:03:54;12.57;;;3.70;;
9128;SDS011;4599;50.906;6.786;2022-11-25T05:07:59;12.70;;;3.20;;
9128;SDS011;4599;50.906;6.786;2022-11-25T05:12:00;8.50;;;2.97;;
9128;SDS011;4599;50.906;6.786;2022-11-25T05:16:02;12.03;;;3.00;;
9128;SDS011;4599;50.906;6.786;2022-11-25T05:20:05;10.30;;;2.70;;
9128;SDS011;4599;50.906;6.786;2022-11-25T05:24:08;10.40;;;2.87;;
9128;SDS011;4599;50.906;6.786;2022-11-25T05:28:10;8.90;;;2.73;;
9128;SDS011;4599;50.906;6.786;2022-11-25T05:32:12;12.43;;;3.30;;
9128;SDS011;4599;50.906;6.786;2022-11-25T05:36:14;10.73;;;2.83;;
9128;SDS011;4599;50.906;6.786;2022-11-25T05:40:17;10.63;;;2.63;;
9128;SDS011;4599;50.906;6.786;2022-11-25T05:44:19;11.67;;;2.80;;
9128;SDS011;4599;50.906;6.786;2022-11-25T05:48:23;14.50;;;3.23;;
9128;SDS011;4599;50.906;6.786;2022-11-25T05:52:25;9.37;;;2.57;;
9128;SDS011;4599;50.906;6.786;2022-11-25T05:56:27;9.07;;;2.87;;
9128;SDS011;4599;50.906;6.786;2022-11-25T06:00:29;10.23;;;2.63;;
9128;SDS011;4599;50.906;6.786;2022-11-25T06:04:31;7.67;;;2.70;;
9128;SDS011;4599;50.906;6.786;2022-11-25T06:08:33;6.87;;;2.37;;
9128;SDS011;4599;50.906;6.786;2022-11-25T06:12:36;11.10;;;2.87;;
9128;SDS011;4599;50.906;6.786;2022-11-25T06:16:39;8.13;;;2.57;;
9128;SDS011;4599;50.906;6.786;2022-11-25T06:20:41;12.43;;;2.90;;
9128;SDS011;4599;50.906;6.786;2022-11-25T06:24:42;7.30;;;2.67;;
9128;SDS011;4599;50.906;6.786;2022-11-25T06:28:50;12.70;;;2.80;;
9128;SDS011;4599;50.906;6.786;2022-11-25T06:32:53;7.83;;;2.63;;
9128;SDS011;4599;50.906;6.786;2022-11-25T06:36:55;10.53;;;2.60;;
9128;SDS011;4599;50.906;6.786;2022-11-25T06:40:59;11.87;;;2.63;;
9128;SDS011;4599;50.906;6.786;2022-11-25T06:45:03;7.43;;;2.30;;
9128;SDS011;4599;50.906;6.786;2022-11-25T06:49:05;9.13;;;2.57;;
9128;SDS011;4599;50.906;6.786;2022-11-25T06:53:07;8.00;;;2.60;;
9128;SDS011;4599;50.906;6.786;2022-11-25T06:57:09;8.20;;;2.43;;
9128;SDS011;4599;50.906;6.786;2022-11-25T07:01:14;10.30;;;2.63;;
9128;SDS011;4599;50.906;6.786;2022-11-25T07:05:17;7.20;;;2.20;;
9128;SDS011;4599;50.906;6.786;2022-11-25T07:09:18;6.73;;;2.13;;
9128;SDS011;4599;50.906;6.786;2022-11-25T07:13:21;6.87;;;2.30;;
9128;SDS011;4599;50.906;6.786;2022-11-25T07:17:23;5.83;;;1.90;;
9128;SDS011;4599;50.906;6.786;2022-11-25T07:21:25;6.07;;;1.97;;
9128;SDS011;4599;50.906;6.786;2022-11-25T07:25:26;5.20;;;2.00;;
9128;SDS011;4599;50.906;6.786;2022-11-25T07:29:31;8.37;;;2.30;;
9128;SDS011;4599;50.906;6.786;2022-11-25T07:33:54;5.43;;;1.93;;
9128;SDS011;4599;50.906;6.786;2022-11-25T07:37:57;6.37;;;1.97;;
9128;SDS011;4599;50.906;6.786;2022-11-25T07:41:58;4.20;;;1.97;;
9128;SDS011;4599;50.906;6.786;2022-11-25T07:46:07;5.93;;;1.83;;
9128;SDS011;4599;50.906;6.786;2022-11-25T07:50:11;4.03;;;1.97;;
9128;SDS011;4599;50.906;6.786;2022-11-25T07:54:13;4.90;;;1.77;;
9128;SDS011;4599;50.906;6.786;2022-11-25T07:58:15;10.20;;;2.77;;
9128;SDS011;4599;50.906;6.786;2022-11-25T08:02:16;7.03;;;2.50;;
9128;SDS011;4599;50.906;6.786;2022-11-25T08:06:20;4.83;;;2.00;;
9128;SDS011;4599;50.906;6.786;2022-11-25T08:10:22;7.07;;;2.17;;
9128;SDS011;4599;50.906;6.786;2022-11-25T08:14:24;5.73;;;1.90;;
9128;SDS011;4599;50.906;6.786;2022-11-25T08:18:25;6.50;;;1.77;;
9128;SDS011;4599;50.906;6.786;2022-11-25T08:22:29;3.87;;;1.70;;
9128;SDS011;4599;50.906;6.786;2022-11-25T08:26:31;3.37;;;1.63;;
9128;SDS011;4599;50.906;6.786;2022-11-25T08:30:34;5.13;;;1.57;;
9128;SDS011;4599;50.906;6.786;2022-11-25T08:34:36;5.07;;;1.93;;
9128;SDS011;4599;50.906;6.786;2022-11-25T08:38:39;5.10;;;1.83;;
9128;SDS011;4599;50.906;6.786;2022-11-25T08:42:42;6.13;;;1.77;;
9128;SDS011;4599;50.906;6.786;2022-11-25T08:46:43;5.17;;;1.57;;
9128;SDS011;4599;50.906;6.786;2022-11-25T08:50:47;4.80;;;1.70;;
9128;SDS011;4599;50.906;6.786;2022-11-25T08:54:51;3.30;;;1.67;;
9128;SDS011;4599;50.906;6.786;2022-11-25T08:58:53;4.83;;;1.73;;
9128;SDS011;4599;50.906;6.786;2022-11-25T09:02:55;3.37;;;1.80;;
9128;SDS011;4599;50.906;6.786;2022-11-25T09:06:56;3.63;;;1.77;;
9128;SDS011;4599;50.906;6.786;2022-11-25T09:10:59;4.03;;;1.50;;
9128;SDS011;4599;50.906;6.786;2022-11-25T09:15:01;2.50;;;1.43;;
9128;SDS011;4599;50.906;6.786;2022-11-25T09:19:03;5.17;;;1.80;;
9128;SDS011;4599;50.906;6.786;2022-11-25T09:23:04;10.03;;;2.20;;
9128;SDS011;4599;50.906;6.786;2022-11-25T09:27:08;7.73;;;2.00;;
9128;SDS011;4599;50.906;6.786;2022-11-25T09:31:10;10.00;;;2.40;;
9128;SDS011;4599;50.906;6.786;2022-11-25T09:35:11;5.23;;;2.10;;
9128;SDS011;4599;50.906;6.786;2022-11-25T09:39:15;5.30;;;1.77;;
9128;SDS011;4599;50.906;6.786;2022-11-25T09:43:23;7.43;;;1.97;;
9128;SDS011;4599;50.906;6.786;2022-11-25T09:47:36;12.53;;;2.43;;
9128;SDS011;4599;50.906;6.786;2022-11-25T09:51:52;7.13;;;2.70;;
9128;SDS011;4599;50.906;6.786;2022-11-25T09:56:03;5.80;;;2.27;;
9128;SDS011;4599;50.906;6.786;2022-11-25T10:00:13;5.10;;;2.10;;
9128;SDS011;4599;50.906;6.786;2022-11-25T10:04:23;7.20;;;2.53;;
9128;SDS011;4599;50.906;6.786;2022-11-25T10:08:35;8.57;;;2.33;;
9128;SDS011;4599;50.906;6.786;2022-11-25T10:12:41;9.20;;;2.10;;
9128;SDS011;4599;50.906;6.786;2022-11-25T10:16:48;9.60;;;2.63;;
9128;SDS011;4599;50.906;6.786;2022-11-25T10:20:52;8.43;;;2.20;;
9128;SDS011;4599;50.906;6.786;2022-11-25T10:24:55;8.70;;;1.83;;
9128;SDS011;4599;50.906;6.786;2022-11-25T10:29:04;9.13;;;2.43;;
9128;SDS011;4599;50.906;6.786;2022-11-25T10:33:23;9.13;;;2.23;;
9128;SDS011;4599;50.906;6.786;2022-11-25T10:37:28;6.00;;;2.10;;
9128;SDS011;4599;50.906;6.786;2022-11-25T10:41:33;5.60;;;1.87;;
9128;SDS011;4599;50.906;6.786;2022-11-25T10:45:40;8.67;;;2.10;;
9128;SDS011;4599;50.906;6.786;2022-11-25T10:49:53;7.93;;;2.20;;
9128;SDS011;4599;50.906;6.786;2022-11-25T10:54:07;9.20;;;2.30;;
9128;SDS011;4599;50.906;6.786;2022-11-25T10:58:19;8.90;;;2.50;;
9128;SDS011;4599;50.906;6.786;2022-11-25T11:02:30;7.77;;;2.33;;
9128;SDS011;4599;50.906;6.786;2022-11-25T11:06:40;9.83;;;2.70;;
9128;SDS011;4599;50.906;6.786;2022-11-25T11:10:43;4.90;;;2.17;;
9128;SDS011;4599;50.906;6.786;2022-11-25T11:14:45;10.13;;;2.67;;
9128;SDS011;4599;50.906;6.786;2022-11-25T11:18:47;8.00;;;2.00;;
9128;SDS011;4599;50.906;6.786;2022-11-25T11:22:53;11.40;;;3.23;;
9128;SDS011;4599;50.906;6.786;2022-11-25T11:27:01;9.73;;;2.70;;
9128;SDS011;4599;50.906;6.786;2022-11-25T11:31:05;17.33;;;2.70;;
9128;SDS011;4599;50.906;6.786;2022-11-25T11:35:17;13.67;;;3.23;;
9128;SDS011;4599;50.906;6.786;2022-11-25T11:43:53;13.57;;;2.77;;
9128;SDS011;4599;50.906;6.786;2022-11-25T11:48:06;13.07;;;2.43;;
9128;SDS011;4599;50.906;6.786;2022-11-25T11:52:14;10.90;;;2.73;;
9128;SDS011;4599;50.906;6.786;2022-11-25T11:56:27;11.93;;;2.77;;
9128;SDS011;4599;50.906;6.786;2022-11-25T12:00:37;16.40;;;3.30;;
9128;SDS011;4599;50.906;6.786;2022-11-25T12:04:49;11.77;;;2.87;;
9128;SDS011;4599;50.906;6.786;2022-11-25T12:08:58;11.33;;;2.90;;
9128;SDS011;4599;50.906;6.786;2022-11-25T12:13:16;11.13;;;2.50;;
9128;SDS011;4599;50.906;6.786;2022-11-25T12:17:24;12.60;;;2.77;;
9128;SDS011;4599;50.906;6.786;2022-11-25T12:21:36;10.57;;;2.47;;
9128;SDS011;4599;50.906;6.786;2022-11-25T12:25:44;14.40;;;3.10;;
9128;SDS011;4599;50.906;6.786;2022-11-25T12:29:54;10.87;;;2.90;;
9128;SDS011;4599;50.906;6.786;2022-11-25T12:34:03;11.17;;;2.70;;
9128;SDS011;4599;50.906;6.786;2022-11-25T12:38:13;11.03;;;2.40;;
9128;SDS011;4599;50.906;6.786;2022-11-25T12:42:23;13.47;;;2.63;;
9128;SDS011;4599;50.906;6.786;2022-11-25T12:46:32;13.60;;;2.87;;
9128;SDS011;4599;50.906;6.786;2022-11-25T12:50:39;12.60;;;3.00;;
9128;SDS011;4599;50.906;6.786;2022-11-25T12:54:51;13.10;;;2.83;;
9128;SDS011;4599;50.906;6.786;2022-11-25T12:59:11;10.67;;;2.70;;
9128;SDS011;4599;50.906;6.786;2022-11-25T13:03:43;11.40;;;2.60;;
9128;SDS011;4599;50.906;6.786;2022-11-25T13:08:00;12.33;;;2.80;;
9128;SDS011;4599;50.906;6.786;2022-11-25T13:12:20;12.60;;;2.43;;
9128;SDS011;4599;50.906;6.786;2022-11-25T13:16:32;10.33;;;2.43;;
9128;SDS011;4599;50.906;6.786;2022-11-25T13:20:45;9.73;;;2.33;;
9128;SDS011;4599;50.906;6.786;2022-11-25T13:24:49;7.20;;;2.40;;
9128;SDS011;4599;50.906;6.786;2022-11-25T13:28:50;7.97;;;2.23;;
9128;SDS011;4599;50.906;6.786;2022-11-25T13:32:52;12.07;;;2.53;;
9128;SDS011;4599;50.906;6.786;2022-11-25T13:36:55;9.30;;;2.30;;
9128;SDS011;4599;50.906;6.786;2022-11-25T13:40:58;10.13;;;2.50;;
9128;SDS011;4599;50.906;6.786;2022-11-25T13:45:23;12.90;;;2.60;;
9128;SDS011;4599;50.906;6.786;2022-11-25T13:49:43;8.40;;;2.67;;
9128;SDS011;4599;50.906;6.786;2022-11-25T13:53:54;7.13;;;2.40;;
9128;SDS011;4599;50.906;6.786;2022-11-25T13:58:02;7.17;;;2.40;;
9128;SDS011;4599;50.906;6.786;2022-11-25T14:06:46;12.50;;;2.67;;
9128;SDS011;4599;50.906;6.786;2022-11-25T14:11:16;9.40;;;2.07;;
9128;SDS011;4599;50.906;6.786;2022-11-25T14:15:43;12.77;;;2.78;;
9128;SDS011;4599;50.906;6.786;2022-11-25T14:20:01;12.10;;;2.33;;
9128;SDS011;4599;50.906;6.786;2022-11-25T14:24:17;9.73;;;2.07;;
9128;SDS011;4599;50.906;6.786;2022-11-25T14:28:31;13.90;;;3.13;;
9128;SDS011;4599;50.906;6.786;2022-11-25T14:32:40;11.43;;;2.60;;
9128;SDS011;4599;50.906;6.786;2022-11-25T14:36:46;13.50;;;2.80;;
9128;SDS011;4599;50.906;6.786;2022-11-25T14:40:51;12.97;;;2.73;;
9128;SDS011;4599;50.906;6.786;2022-11-25T14:44:59;13.90;;;2.53;;
9128;SDS011;4599;50.906;6.786;2022-11-25T14:49:01;12.27;;;2.43;;
9128;SDS011;4599;50.906;6.786;2022-11-25T14:53:08;9.70;;;2.40;;
9128;SDS011;4599;50.906;6.786;2022-11-25T14:57:11;8.20;;;2.50;;
9128;SDS011;4599;50.906;6.786;2022-11-25T15:01:17;8.23;;;2.13;;
9128;SDS011;4599;50.906;6.786;2022-11-25T15:05:21;12.83;;;2.70;;
9128;SDS011;4599;50.906;6.786;2022-11-25T15:09:25;10.53;;;2.67;;
9128;SDS011;4599;50.906;6.786;2022-11-25T15:13:29;9.13;;;2.50;;
9128;SDS011;4599;50.906;6.786;2022-11-25T15:17:34;9.87;;;2.33;;
9128;SDS011;4599;50.906;6.786;2022-11-25T15:21:37;14.10;;;3.17;;
9128;SDS011;4599;50.906;6.786;2022-11-25T15:26:01;9.23;;;2.50;;
9128;SDS011;4599;50.906;6.786;2022-11-25T15:30:16;14.37;;;2.37;;
9128;SDS011;4599;50.906;6.786;2022-11-25T15:34:20;11.63;;;2.73;;
9128;SDS011;4599;50.906;6.786;2022-11-25T15:38:33;10.77;;;2.43;;
9128;SDS011;4599;50.906;6.786;2022-11-25T15:42:40;14.53;;;2.57;;
9128;SDS011;4599;50.906;6.786;2022-11-25T15:46:48;12.47;;;2.77;;
9128;SDS011;4599;50.906;6.786;2022-11-25T15:50:56;11.43;;;2.60;;
9128;SDS011;4599;50.906;6.786;2022-11-25T15:55:02;13.17;;;2.53;;
9128;SDS011;4599;50.906;6.786;2022-11-25T16:03:41;8.67;;;2.07;;
9128;SDS011;4599;50.906;6.786;2022-11-25T16:07:57;10.37;;;2.70;;
9128;SDS011;4599;50.906;6.786;2022-11-25T16:12:14;13.63;;;2.40;;
9128;SDS011;4599;50.906;6.786;2022-11-25T16:16:24;8.83;;;2.53;;
9128;SDS011;4599;50.906;6.786;2022-11-25T16:20:28;10.87;;;2.40;;
9128;SDS011;4599;50.906;6.786;2022-11-25T16:24:34;13.80;;;3.20;;
9128;SDS011;4599;50.906;6.786;2022-11-25T16:28:39;10.67;;;2.60;;
9128;SDS011;4599;50.906;6.786;2022-11-25T16:32:42;12.03;;;2.70;;
9128;SDS011;4599;50.906;6.786;2022-11-25T16:36:44;14.43;;;2.90;;
9128;SDS011;4599;50.906;6.786;2022-11-25T16:40:47;10.23;;;2.50;;
9128;SDS011;4599;50.906;6.786;2022-11-25T16:44:52;11.33;;;2.73;;
9128;SDS011;4599;50.906;6.786;2022-11-25T16:48:54;8.63;;;2.10;;
9128;SDS011;4599;50.906;6.786;2022-11-25T16:52:58;7.60;;;2.10;;
9128;SDS011;4599;50.906;6.786;2022-11-25T16:57:01;14.20;;;2.57;;
9128;SDS011;4599;50.906;6.786;2022-11-25T17:01:04;8.67;;;2.30;;
9128;SDS011;4599;50.906;6.786;2022-11-25T17:05:13;6.77;;;2.30;;
9128;SDS011;4599;50.906;6.786;2022-11-25T17:09:17;8.57;;;2.60;;
9128;SDS011;4599;50.906;6.786;2022-11-25T17:13:20;12.53;;;2.60;;
9128;SDS011;4599;50.906;6.786;2022-11-25T17:17:23;8.27;;;2.20;;
9128;SDS011;4599;50.906;6.786;2022-11-25T17:21:26;7.50;;;2.33;;
9128;SDS011;4599;50.906;6.786;2022-11-25T17:25:28;12.80;;;2.70;;
9128;SDS011;4599;50.906;6.786;2022-11-25T17:29:37;11.43;;;2.63;;
9128;SDS011;4599;50.906;6.786;2022-11-25T17:33:41;9.00;;;2.33;;
9128;SDS011;4599;50.906;6.786;2022-11-25T17:37:44;15.13;;;2.77;;
9128;SDS011;4599;50.906;6.786;2022-11-25T17:41:47;11.17;;;2.50;;
9128;SDS011;4599;50.906;6.786;2022-11-25T17:45:52;13.97;;;2.80;;
9128;SDS011;4599;50.906;6.786;2022-11-25T17:49:53;12.40;;;3.00;;
9128;SDS011;4599;50.906;6.786;2022-11-25T17:53:55;11.77;;;2.60;;
9128;SDS011;4599;50.906;6.786;2022-11-25T17:57:57;9.13;;;2.37;;
9128;SDS011;4599;50.906;6.786;2022-11-25T18:02:00;7.67;;;2.27;;
9128;SDS011;4599;50.906;6.786;2022-11-25T18:06:01;11.73;;;2.50;;
9128;SDS011;4599;50.906;6.786;2022-11-25T18:10:03;14.00;;;2.90;;
9128;SDS011;4599;50.906;6.786;2022-11-25T18:14:06;11.43;;;3.03;;
9128;SDS011;4599;50.906;6.786;2022-11-25T18:18:14;16.27;;;3.17;;
9128;SDS011;4599;50.906;6.786;2022-11-25T18:22:19;13.20;;;2.60;;
9128;SDS011;4599;50.906;6.786;2022-11-25T18:26:21;10.40;;;2.80;;
9128;SDS011;4599;50.906;6.786;2022-11-25T18:30:24;12.53;;;2.60;;
9128;SDS011;4599;50.906;6.786;2022-11-25T18:34:29;15.03;;;3.23;;
9128;SDS011;4599;50.906;6.786;2022-11-25T18:38:31;17.17;;;2.97;;
9128;SDS011;4599;50.906;6.786;2022-11-25T18:42:32;10.80;;;3.00;;
9128;SDS011;4599;50.906;6.786;2022-11-25T18:46:36;9.47;;;2.70;;
9128;SDS011;4599;50.906;6.786;2022-11-25T18:50:40;13.73;;;3.20;;
9128;SDS011;4599;50.906;6.786;2022-11-25T18:54:41;11.17;;;2.90;;
9128;SDS011;4599;50.906;6.786;2022-11-25T18:58:43;13.07;;;2.83;;
9128;SDS011;4599;50.906;6.786;2022-11-25T19:02:50;12.60;;;2.80;;
9128;SDS011;4599;50.906;6.786;2022-11-25T19:06:53;13.27;;;3.20;;
9128;SDS011;4599;50.906;6.786;2022-11-25T19:10:54;15.37;;;3.23;;
9128;SDS011;4599;50.906;6.786;2022-11-25T19:14:56;13.30;;;3.33;;
9128;SDS011;4599;50.906;6.786;2022-11-25T19:18:58;13.93;;;3.10;;
9128;SDS011;4599;50.906;6.786;2022-11-25T19:23:03;13.33;;;3.43;;
9128;SDS011;4599;50.906;6.786;2022-11-25T19:27:16;14.73;;;3.03;;
9128;SDS011;4599;50.906;6.786;2022-11-25T19:31:20;12.77;;;3.20;;
9128;SDS011;4599;50.906;6.786;2022-11-25T19:35:23;11.77;;;3.13;;
9128;SDS011;4599;50.906;6.786;2022-11-25T19:39:28;17.50;;;3.13;;
9128;SDS011;4599;50.906;6.786;2022-11-25T19:43:35;11.50;;;2.90;;
9128;SDS011;4599;50.906;6.786;2022-11-25T19:47:37;14.27;;;3.43;;
9128;SDS011;4599;50.906;6.786;2022-11-25T19:51:39;14.17;;;3.33;;
9128;SDS011;4599;50.906;6.786;2022-11-25T19:55:43;13.17;;;3.00;;
9128;SDS011;4599;50.906;6.786;2022-11-25T19:59:45;14.97;;;3.20;;
9128;SDS011;4599;50.906;6.786;2022-11-25T20:03:48;12.70;;;3.10;;
9128;SDS011;4599;50.906;6.786;2022-11-25T20:07:50;11.60;;;2.83;;
9128;SDS011;4599;50.906;6.786;2022-11-25T20:11:54;14.73;;;2.70;;
9128;SDS011;4599;50.906;6.786;2022-11-25T20:15:55;12.20;;;3.00;;
9128;SDS011;4599;50.906;6.786;2022-11-25T20:20:00;10.90;;;3.07;;
9128;SDS011;4599;50.906;6.786;2022-11-25T20:24:08;12.83;;;3.50;;
9128;SDS011;4599;50.906;6.786;2022-11-25T20:28:15;10.47;;;3.40;;
9128;SDS011;4599;50.906;6.786;2022-11-25T20:32:19;14.13;;;3.57;;
9128;SDS011;4599;50.906;6.786;2022-11-25T20:36:27;23.77;;;11.43;;
9128;SDS011;4599;50.906;6.786;2022-11-25T20:40:35;18.47;;;7.10;;
9128;SDS011;4599;50.906;6.786;2022-11-25T20:44:41;14.00;;;4.00;;
9128;SDS011;4599;50.906;6.786;2022-11-25T20:48:43;14.57;;;3.73;;
9128;SDS011;4599;50.906;6.786;2022-11-25T20:52:46;14.10;;;3.10;;
9128;SDS011;4599;50.906;6.786;2022-11-25T20:56:49;16.67;;;3.70;;
9128;SDS011;4599;50.906;6.786;2022-11-25T21:00:52;17.23;;;3.67;;
9128;SDS011;4599;50.906;6.786;2022-11-25T21:04:58;12.20;;;3.70;;
9128;SDS011;4599;50.906;6.786;2022-11-25T21:08:59;14.90;;;3.70;;
9128;SDS011;4599;50.906;6.786;2022-11-25T21:13:04;8.77;;;3.37;;
9128;SDS011;4599;50.906;6.786;2022-11-25T21:17:10;23.13;;;4.03;;
9128;SDS011;4599;50.906;6.786;2022-11-25T21:21:13;16.20;;;3.97;;
9128;SDS011;4599;50.906;6.786;2022-11-25T21:25:18;12.37;;;3.80;;
9128;SDS011;4599;50.906;6.786;2022-11-25T21:29:21;12.70;;;3.93;;
9128;SDS011;4599;50.906;6.786;2022-11-25T21:33:25;10.67;;;4.20;;
9128;SDS011;4599;50.906;6.786;2022-11-25T21:37:27;15.43;;;4.60;;
9128;SDS011;4599;50.906;6.786;2022-11-25T21:41:31;6.83;;;3.20;;
9128;SDS011;4599;50.906;6.786;2022-11-25T21:45:33;12.90;;;3.40;;
9128;SDS011;4599;50.906;6.786;2022-11-25T21:49:36;11.80;;;3.80;;
9128;SDS011;4599;50.906;6.786;2022-11-25T21:53:40;13.03;;;4.27;;
9128;SDS011;4599;50.906;6.786;2022-11-25T21:57:41;12.57;;;4.03;;
9128;SDS011;4599;50.906;6.786;2022-11-25T22:01:43;11.27;;;3.77;;
9128;SDS011;4599;50.906;6.786;2022-11-25T22:05:47;25.97;;;11.67;;
9128;SDS011;4599;50.906;6.786;2022-11-25T22:09:48;23.37;;;10.93;;
9128;SDS011;4599;50.906;6.786;2022-11-25T22:13:50;20.33;;;9.07;;
9128;SDS011;4599;50.906;6.786;2022-11-25T22:17:52;16.20;;;6.63;;
9128;SDS011;4599;50.906;6.786;2022-11-25T22:21:58;14.73;;;4.60;;
9128;SDS011;4599;50.906;6.786;2022-11-25T22:25:59;10.97;;;3.73;;
9128;SDS011;4599;50.906;6.786;2022-11-25T22:30:04;14.43;;;4.50;;
9128;SDS011;4599;50.906;6.786;2022-11-25T22:34:09;14.73;;;4.10;;
9128;SDS011;4599;50.906;6.786;2022-11-25T22:38:21;18.33;;;5.03;;
9128;SDS011;4599;50.906;6.786;2022-11-25T22:42:24;11.73;;;4.07;;
9128;SDS011;4599;50.906;6.786;2022-11-25T22:46:27;14.93;;;5.00;;
9128;SDS011;4599;50.906;6.786;2022-11-25T22:50:31;13.43;;;4.47;;
9128;SDS011;4599;50.906;6.786;2022-11-25T22:54:35;14.33;;;4.43;;
9128;SDS011;4599;50.906;6.786;2022-11-25T22:58:37;13.17;;;4.63;;
9128;SDS011;4599;50.906;6.786;2022-11-25T23:02:38;16.67;;;4.67;;
9128;SDS011;4599;50.906;6.786;2022-11-25T23:06:40;16.83;;;4.60;;
9128;SDS011;4599;50.906;6.786;2022-11-25T23:10:43;17.17;;;4.70;;
9128;SDS011;4599;50.906;6.786;2022-11-25T23:14:45;15.30;;;4.80;;
9128;SDS011;4599;50.906;6.786;2022-11-25T23:18:47;22.27;;;5.10;;
9128;SDS011;4599;50.906;6.786;2022-11-25T23:22:48;23.80;;;5.50;;
9128;SDS011;4599;50.906;6.786;2022-11-25T23:26:51;20.13;;;5.83;;
9128;SDS011;4599;50.906;6.786;2022-11-25T23:30:53;15.10;;;5.30;;
9128;SDS011;4599;50.906;6.786;2022-11-25T23:34:56;12.73;;;5.13;;
9128;SDS011;4599;50.906;6.786;2022-11-25T23:38:58;19.97;;;5.83;;
9128;SDS011;4599;50.906;6.786;2022-11-25T23:43:04;15.87;;;4.90;;
9128;SDS011;4599;50.906;6.786;2022-11-25T23:47:12;14.53;;;5.00;;
9128;SDS011;4599;50.906;6.786;2022-11-25T23:51:16;11.53;;;5.17;;
9128;SDS011;4599;50.906;6.786;2022-11-25T23:55:19;15.60;;;5.30;;
9128;SDS011;4599;50.906;6.786;2022-11-25T23:59:25;17.87;;;5.77;;
